Seiyu Maru — JD3189 — position and weather

sailwx.info

Track history (hours):
 
Tides and Currents Weather Stations Pressure Air Temp Water Temp Dewpoint Dewpoint Depression Visibility Wind Speed Wind Dir Waves Ship Positions

Seiyu Maru

Last reported at 2018-Jan-18 07:50 UTC. Time now 2018-Jan-18 08:02 UTC.
Position N 34°35' E 138°29'.

Length 75 m; draft 4.5 m.

Type: Cargo ship. MMSI: 431002433.

Date/timePositionNaut miles runAvg speedWind from/ knotsBaromVisibWave heightAir tempDewpointWater temp
2018-Jan-18 07:50N 34°35' E 138°29'5 8.5
2018-Jan-18 07:13N 34°35' E 138°36'2 8.9
2018-Jan-18 06:57N 34°35' E 138°39'8 9.4
2018-Jan-18 06:09N 34°35' E 138°48'210.0
2018-Jan-18 05:57N 34°35' E 138°50'4 9.9
2018-Jan-18 05:30N 34°36' E 138°55'6 9.5
2018-Jan-18 04:50N 34°40' E 139°01'310.0
2018-Jan-18 04:30N 34°43' E 139°04'1210.7
2018-Jan-18 03:21N 34°52' E 139°13'510.3
2018-Jan-18 02:50N 34°56' E 139°17'3 9.6
2018-Jan-18 02:29N 34°59' E 139°20'510.0
2018-Jan-18 02:00N 35°01' E 139°26'5 9.9
2018-Jan-18 01:30N 35°03' E 139°31'510.3
2018-Jan-18 01:01N 35°05' E 139°36'1110.8
2018-Jan-18 00:00N 35°13' E 139°46'111.9
2018-Jan-17 23:58N 35°13' E 139°46'  
2018-Jan-10 22:52N 41°55' E 141°21'511.5
2018-Jan-10 22:26N 41°50' E 141°21'511.3
2018-Jan-10 22:00N 41°45' E 141°21'510.9
2018-Jan-10 21:30N 41°40' E 141°22'511.0
2018-Jan-10 21:00N 41°35' E 141°26'5 9.7
2018-Jan-10 20:28N 41°31' E 141°30'610.0
2018-Jan-10 19:52N 41°26' E 141°34'  
Track history (hours):
 
Tides and Currents Weather Stations Pressure Air Temp Water Temp Dewpoint Dewpoint Depression Visibility Wind Speed Wind Dir Waves Ship Positions

Seiyu Maru

Last reported at 2018-Jan-18 07:50 UTC. Time now 2018-Jan-18 08:02 UTC.
Position N 34°35' E 138°29'.

Length 75 m; draft 4.5 m.

Type: Cargo ship. MMSI: 431002433.

Date/timePositionNaut miles runAvg speedWind from/ knotsBaromVisibWave heightAir tempDewpointWater temp
2018-Jan-18 07:50N 34°35' E 138°29'5 8.5
2018-Jan-18 07:13N 34°35' E 138°36'2 8.9
2018-Jan-18 06:57N 34°35' E 138°39'8 9.4
2018-Jan-18 06:09N 34°35' E 138°48'210.0
2018-Jan-18 05:57N 34°35' E 138°50'4 9.9
2018-Jan-18 05:30N 34°36' E 138°55'6 9.5
2018-Jan-18 04:50N 34°40' E 139°01'310.0
2018-Jan-18 04:30N 34°43' E 139°04'1210.7
2018-Jan-18 03:21N 34°52' E 139°13'510.3
2018-Jan-18 02:50N 34°56' E 139°17'3 9.6
2018-Jan-18 02:29N 34°59' E 139°20'510.0
2018-Jan-18 02:00N 35°01' E 139°26'5 9.9
2018-Jan-18 01:30N 35°03' E 139°31'510.3
2018-Jan-18 01:01N 35°05' E 139°36'1110.8
2018-Jan-18 00:00N 35°13' E 139°46'111.9
2018-Jan-17 23:58N 35°13' E 139°46'  
2018-Jan-10 22:52N 41°55' E 141°21'511.5
2018-Jan-10 22:26N 41°50' E 141°21'511.3
2018-Jan-10 22:00N 41°45' E 141°21'510.9
2018-Jan-10 21:30N 41°40' E 141°22'511.0
2018-Jan-10 21:00N 41°35' E 141°26'5 9.7
2018-Jan-10 20:28N 41°31' E 141°30'610.0
2018-Jan-10 19:52N 41°26' E 141°34'  

Dump ship's entire track history